Time;durP1;ratioP1;P1;durP2;ratioP2;P2;SDS_P1;SDS_P2;PMS_P1;PMS_P2;Temp;Humidity;BMP_temperature;BMP_pressure;BME280_temperature;BME280_humidity;BME280_pressure;Samples;Min_cycle;Max_cycle;Signal;HPM_P1;HPM_P2
2022/09/12 00:00:10;;;;;;;7.80;7.10;;;;;;;17.63;60.39;97621.44;5050346;28;20450;-70
2022/09/12 00:02:35;;;;;;;8.67;7.00;;;;;;;17.58;60.27;97616.69;5047679;28;20956;-70
2022/09/12 00:05:01;;;;;;;8.27;7.43;;;;;;;17.55;60.20;97611.75;5050863;28;20448;-69
2022/09/12 00:07:26;;;;;;;8.23;7.40;;;;;;;17.48;60.60;97616.16;5035924;28;20183;-72
2022/09/12 00:09:52;;;;;;;12.13;8.00;;;;;;;17.52;60.70;97609.47;5050734;28;20175;-70
2022/09/12 00:12:17;;;;;;;10.47;7.70;;;;;;;17.57;60.47;97606.28;5050269;28;20266;-70
2022/09/12 00:14:43;;;;;;;8.20;7.27;;;;;;;17.50;60.55;97607.03;5050545;28;20637;-69
2022/09/12 00:17:08;;;;;;;7.87;7.07;;;;;;;17.52;60.39;97614.78;5049614;28;20207;-69
2022/09/12 00:19:34;;;;;;;7.60;6.90;;;;;;;17.56;60.24;97604.66;5048592;28;20190;-70
2022/09/12 00:21:59;;;;;;;9.43;7.47;;;;;;;17.53;60.22;97600.53;5054167;28;20705;-70
2022/09/12 00:24:25;;;;;;;8.50;7.70;;;;;;;17.52;60.20;97598.88;5050158;28;20171;-69
2022/09/12 00:26:50;;;;;;;8.07;7.33;;;;;;;17.48;60.40;97602.94;5050578;28;20332;-70
2022/09/12 00:29:19;;;;;;;7.90;6.80;;;;;;;17.47;60.55;97601.28;5050062;28;20633;-70
2022/09/12 00:31:44;;;;;;;9.60;7.67;;;;;;;17.40;60.75;97598.56;5050831;28;20190;-70
2022/09/12 00:34:10;;;;;;;10.47;7.43;;;;;;;17.37;60.69;97600.75;5049994;28;20552;-70
2022/09/12 00:36:36;;;;;;;10.10;7.37;;;;;;;17.38;60.57;97591.81;5047990;28;20211;-70
2022/09/12 00:39:03;;;;;;;9.33;7.50;;;;;;;17.37;60.70;97592.81;5050561;28;20551;-70
2022/09/12 00:41:31;;;;;;;9.53;7.50;;;;;;;17.31;60.65;97589.88;5049994;28;20410;-71
2022/09/12 00:44:21;;;;;;;7.90;7.20;;;;;;;17.23;60.64;97591.81;5050052;28;20421;-70
2022/09/12 00:46:54;;;;;;;10.13;7.90;;;;;;;17.17;60.80;97590.72;5045062;28;20463;-71
2022/09/12 00:49:28;;;;;;;8.50;7.60;;;;;;;17.13;60.93;97592.13;5061498;28;21003;-71
2022/09/12 00:52:07;;;;;;;8.67;7.77;;;;;;;17.12;61.03;97587.84;5054461;28;20985;-71
2022/09/12 00:54:40;;;;;;;9.80;8.50;;;;;;;17.17;61.05;97590.72;5052993;28;20947;-70
2022/09/12 00:57:08;;;;;;;9.20;7.17;;;;;;;17.15;60.87;97584.81;5052054;28;20516;-70
2022/09/12 00:59:47;;;;;;;8.90;7.00;;;;;;;17.17;60.91;97588.09;5060003;28;20425;-73
2022/09/12 01:02:13;;;;;;;9.10;7.70;;;;;;;17.18;60.73;97592.38;5051787;28;20932;-69
2022/09/12 01:04:40;;;;;;;8.47;7.60;;;;;;;17.09;61.13;97591.66;5052736;28;20420;-71
2022/09/12 01:07:06;;;;;;;8.40;7.60;;;;;;;17.04;61.15;97581.63;5061207;28;20270;-70
2022/09/12 01:09:32;;;;;;;9.40;7.93;;;;;;;17.07;61.22;97574.31;5054416;28;20477;-70
2022/09/12 01:11:58;;;;;;;8.10;7.30;;;;;;;17.02;61.18;97573.03;5052829;28;20500;-69
2022/09/12 01:14:23;;;;;;;8.70;7.53;;;;;;;17.08;61.05;97568.81;5052462;28;20629;-70
2022/09/12 01:16:49;;;;;;;10.97;7.90;;;;;;;17.06;60.86;97572.69;5052094;28;20203;-70
2022/09/12 01:19:20;;;;;;;10.43;7.13;;;;;;;17.04;61.13;97571.03;5051883;28;20190;-72
2022/09/12 01:21:58;;;;;;;9.83;7.70;;;;;;;17.03;60.98;97560.63;5054922;28;20417;-69
2022/09/12 01:24:45;;;;;;;7.97;7.17;;;;;;;16.97;60.96;97554.25;5053062;28;21464;-70
2022/09/12 01:27:26;;;;;;;8.47;7.63;;;;;;;16.90;60.97;97555.94;5048803;28;20475;-71
2022/09/12 01:30:23;;;;;;;9.90;7.07;;;;;;;16.91;60.64;97548.84;5049422;28;20512;-70
2022/09/12 01:33:04;;;;;;;7.30;6.60;;;;;;;16.90;59.96;97553.31;5052195;28;20468;-70
2022/09/12 01:35:59;;;;;;;8.00;7.20;;;;;;;16.83;60.92;97558.50;5055694;28;21003;-71
2022/09/12 01:38:35;;;;;;;8.20;7.40;;;;;;;16.82;61.06;97558.69;5051064;28;20418;-71
2022/09/12 01:41:29;;;;;;;8.03;7.33;;;;;;;16.81;60.86;97555.25;5052405;28;20421;-72
2022/09/12 01:44:11;;;;;;;7.80;6.87;;;;;;;16.80;61.04;97552.78;5051973;28;20426;-70
2022/09/12 01:46:58;;;;;;;8.63;7.83;;;;;;;16.75;61.49;97553.31;5040753;28;20446;-69
2022/09/12 01:49:24;;;;;;;8.97;8.00;;;;;;;16.83;61.15;97544.47;5020412;28;20409;-72
2022/09/12 01:52:00;;;;;;;8.10;7.10;;;;;;;16.85;61.36;97543.28;5052686;28;20431;-70
2022/09/12 01:54:30;;;;;;;7.20;6.50;;;;;;;16.88;60.80;97545.56;5060395;28;20444;-71
2022/09/12 01:57:00;;;;;;;7.80;7.00;;;;;;;16.90;60.71;97553.31;5050557;28;20433;-71
2022/09/12 01:59:34;;;;;;;7.57;6.50;;;;;;;16.89;60.43;97543.72;5053192;28;20838;-71
2022/09/12 02:02:10;;;;;;;8.87;7.30;;;;;;;16.91;60.04;97543.56;5052092;28;20433;-70
2022/09/12 02:05:00;;;;;;;6.97;6.17;;;;;;;16.85;59.39;97537.97;5051808;28;20421;-70
2022/09/12 02:07:34;;;;;;;8.80;6.93;;;;;;;16.70;59.86;97532.69;5050607;28;20414;-71
2022/09/12 02:10:18;;;;;;;7.53;6.80;;;;;;;16.73;59.97;97534.16;5053319;28;20410;-71
2022/09/12 02:13:03;;;;;;;9.63;7.00;;;;;;;16.68;60.48;97528.59;5049997;28;20468;-72
2022/09/12 02:15:36;;;;;;;8.90;7.30;;;;;;;16.63;60.48;97526.50;5052312;28;20477;-71
2022/09/12 02:18:04;;;;;;;7.37;6.67;;;;;;;16.56;60.43;97531.72;5052534;28;20444;-71
2022/09/12 02:20:35;;;;;;;8.43;7.47;;;;;;;16.48;60.69;97531.78;5049275;28;20419;-71
2022/09/12 02:23:03;;;;;;;7.83;7.13;;;;;;;16.50;60.76;97526.34;5052579;28;20406;-71
2022/09/12 02:25:29;;;;;;;8.33;6.80;;;;;;;16.50;60.54;97527.13;5052295;28;20441;-70
2022/09/12 02:28:00;;;;;;;8.73;7.17;;;;;;;16.55;60.65;97529.25;5052192;28;20422;-70
2022/09/12 02:30:30;;;;;;;8.47;7.67;;;;;;;16.49;60.90;97525.50;5050741;28;20521;-70
2022/09/12 02:33:11;;;;;;;8.07;7.23;;;;;;;16.45;60.85;97528.69;5052056;28;20464;-70
2022/09/12 02:35:49;;;;;;;9.07;7.87;;;;;;;16.45;61.03;97529.50;5046929;28;20810;-70
2022/09/12 02:38:28;;;;;;;10.13;7.60;;;;;;;16.49;61.35;97524.69;5051528;28;20925;-72
2022/09/12 02:40:54;;;;;;;11.67;7.83;;;;;;;16.51;60.95;97525.31;5052141;28;20429;-71
2022/09/12 02:43:19;;;;;;;12.50;8.20;;;;;;;16.50;60.99;97521.03;5051011;28;20508;-71
2022/09/12 02:45:45;;;;;;;7.90;7.10;;;;;;;16.51;60.93;97520.84;5052253;28;20751;-70
2022/09/12 02:48:18;;;;;;;8.20;7.40;;;;;;;16.50;60.79;97515.75;5050257;28;20206;-71
2022/09/12 02:50:43;;;;;;;7.80;7.07;;;;;;;16.47;60.69;97516.09;5051287;28;20183;-71
2022/09/12 02:53:10;;;;;;;8.07;7.27;;;;;;;16.43;60.92;97513.81;5050262;28;20461;-70
2022/09/12 02:55:36;;;;;;;8.13;6.77;;;;;;;16.42;60.62;97514.81;5051742;28;20209;-69
2022/09/12 02:58:04;;;;;;;8.57;7.47;;;;;;;16.43;60.63;97511.19;5050397;28;20565;-70
2022/09/12 03:00:34;;;;;;;8.27;7.57;;;;;;;16.39;60.43;97512.53;5051004;28;20421;-69
2022/09/12 03:03:30;;;;;;;8.43;7.63;;;;;;;16.38;60.88;97508.25;5046804;28;20417;-70
2022/09/12 03:05:58;;;;;;;9.53;8.13;;;;;;;16.37;60.67;97509.28;5054410;28;20459;-70
2022/09/12 03:08:49;;;;;;;11.57;8.60;;;;;;;16.27;61.19;97512.19;5050448;28;20433;-71
2022/09/12 03:11:33;;;;;;;9.23;8.30;;;;;;;16.26;61.09;97507.06;5051395;28;20464;-70
2022/09/12 03:13:58;;;;;;;8.93;8.03;;;;;;;16.24;61.15;97514.38;5051509;28;20457;-69
2022/09/12 03:16:41;;;;;;;9.70;8.70;;;;;;;16.26;61.18;97513.19;5050614;28;20870;-70
2022/09/12 03:19:23;;;;;;;12.60;9.03;;;;;;;16.27;61.27;97508.69;5049940;28;20171;-70
2022/09/12 03:21:55;;;;;;;9.77;8.60;;;;;;;16.33;61.13;97510.63;5052878;28;20418;-69
2022/09/12 03:24:28;;;;;;;9.87;8.87;;;;;;;16.27;61.30;97512.19;5048718;28;20488;-70
2022/09/12 03:27:04;;;;;;;10.27;9.27;;;;;;;16.17;61.59;97508.97;5051659;28;20532;-69
2022/09/12 03:29:30;;;;;;;13.23;9.10;;;;;;;16.19;61.83;97519.38;5045989;28;20416;-69
2022/09/12 03:31:57;;;;;;;9.97;8.97;;;;;;;16.20;61.93;97513.06;5054845;28;20421;-70
2022/09/12 03:34:25;;;;;;;15.07;9.37;;;;;;;16.13;62.07;97512.97;5050727;28;20488;-70
2022/09/12 03:36:54;;;;;;;10.03;8.50;;;;;;;16.17;61.69;97513.44;5046108;28;20457;-70
2022/09/12 03:39:19;;;;;;;14.20;9.53;;;;;;;16.21;61.83;97514.72;5049428;28;20452;-70
2022/09/12 03:41:45;;;;;;;10.37;9.27;;;;;;;16.18;61.94;97515.06;5050234;28;20853;-69
2022/09/12 03:44:10;;;;;;;9.50;8.60;;;;;;;16.17;61.69;97516.06;5030367;28;20274;-69
2022/09/12 03:46:36;;;;;;;10.40;9.23;;;;;;;16.18;61.41;97509.78;5056626;28;20237;-71
2022/09/12 03:49:01;;;;;;;10.33;8.97;;;;;;;16.17;61.43;97508.16;5064166;28;20719;-70
2022/09/12 03:51:27;;;;;;;10.00;9.10;;;;;;;16.08;61.39;97508.25;5055446;28;20235;-69
2022/09/12 03:53:53;;;;;;;9.83;8.83;;;;;;;16.03;61.51;97505.28;5062477;28;20206;-69
2022/09/12 03:56:18;;;;;;;9.47;8.47;;;;;;;15.96;61.58;97501.75;5057507;28;20977;-71
2022/09/12 03:58:44;;;;;;;9.40;8.40;;;;;;;15.94;61.64;97506.38;5063692;28;20227;-70
2022/09/12 04:01:14;;;;;;;10.30;8.90;;;;;;;15.94;61.58;97501.09;5042671;28;20175;-69
2022/09/12 04:03:41;;;;;;;10.77;8.63;;;;;;;15.95;61.54;97508.03;5067866;28;20194;-70
2022/09/12 04:06:08;;;;;;;10.00;9.00;;;;;;;15.85;61.57;97508.28;5065186;28;20436;-70
2022/09/12 04:08:36;;;;;;;10.90;8.30;;;;;;;15.91;61.21;97510.22;5044747;28;20430;-70
2022/09/12 04:11:04;;;;;;;9.87;8.30;;;;;;;15.86;61.32;97502.00;5049310;28;20422;-70
2022/09/12 04:13:29;;;;;;;8.80;7.90;;;;;;;15.86;61.32;97504.63;5053003;28;20452;-70
2022/09/12 04:15:58;;;;;;;9.80;8.80;;;;;;;15.83;61.26;97497.03;5057082;28;20825;-71
2022/09/12 04:18:24;;;;;;;14.90;9.10;;;;;;;15.85;61.33;97497.69;5066740;28;20178;-70
2022/09/12 04:20:50;;;;;;;14.33;8.90;;;;;;;15.79;61.07;97507.13;5046475;28;20422;-71
2022/09/12 04:23:15;;;;;;;9.87;7.77;;;;;;;15.84;61.28;97506.59;5063173;28;20316;-70
2022/09/12 04:25:40;;;;;;;10.70;8.77;;;;;;;15.88;61.24;97509.75;5060675;28;20199;-70
2022/09/12 04:28:06;;;;;;;9.83;8.60;;;;;;;15.86;61.04;97501.19;5065696;28;20186;-72
2022/09/12 04:30:33;;;;;;;10.43;9.03;;;;;;;15.83;61.21;97504.94;5066980;28;20270;-72
2022/09/12 04:32:59;;;;;;;10.43;9.30;;;;;;;15.82;61.14;97498.84;5057570;28;20652;-71
2022/09/12 04:35:24;;;;;;;8.77;7.87;;;;;;;15.79;61.06;97499.22;5065931;28;20465;-70
2022/09/12 04:37:50;;;;;;;9.30;7.97;;;;;;;15.75;60.87;97502.38;5060285;28;20599;-70
2022/09/12 04:40:15;;;;;;;9.30;7.90;;;;;;;15.69;60.89;97496.00;5066952;28;20536;-71
2022/09/12 04:42:40;;;;;;;10.97;8.63;;;;;;;15.63;61.12;97499.34;5047753;28;20665;-70
2022/09/12 04:45:06;;;;;;;9.00;8.00;;;;;;;15.64;60.95;97506.25;5061615;28;20234;-71
2022/09/12 04:47:32;;;;;;;8.80;7.90;;;;;;;15.65;61.01;97503.47;5047810;28;20174;-71
2022/09/12 04:49:57;;;;;;;11.03;8.27;;;;;;;15.69;60.94;97503.13;5059068;28;20427;-72
2022/09/12 04:52:23;;;;;;;9.30;8.40;;;;;;;15.60;61.08;97502.34;5057593;28;20715;-71
2022/09/12 04:54:48;;;;;;;9.73;7.87;;;;;;;15.60;61.37;97499.72;5059790;28;20171;-70
2022/09/12 04:57:14;;;;;;;9.37;8.47;;;;;;;15.58;61.34;97499.06;5065801;28;20266;-70
2022/09/12 04:59:39;;;;;;;8.10;7.30;;;;;;;15.52;61.44;97498.75;5046001;28;20232;-70
2022/09/12 05:02:04;;;;;;;9.40;8.40;;;;;;;15.55;61.34;97491.47;5056251;28;20669;-70
2022/09/12 05:04:30;;;;;;;12.00;7.33;;;;;;;15.48;61.46;97497.47;5066329;28;20199;-70
2022/09/12 05:06:55;;;;;;;9.30;8.40;;;;;;;15.47;61.69;97498.47;5050236;28;20195;-71
2022/09/12 05:09:21;;;;;;;13.40;8.70;;;;;;;15.51;61.66;97491.81;5052164;28;20258;-73
2022/09/12 05:11:47;;;;;;;8.93;7.40;;;;;;;15.54;61.68;97495.13;5058711;28;20178;-70
2022/09/12 05:14:12;;;;;;;10.73;8.63;;;;;;;15.55;61.61;97496.75;5055576;28;20210;-70
2022/09/12 05:16:38;;;;;;;9.93;8.93;;;;;;;15.54;61.78;97498.59;5061356;28;20194;-70
2022/09/12 05:19:03;;;;;;;11.83;9.07;;;;;;;15.55;61.53;97492.31;5042359;28;20208;-71
2022/09/12 05:21:29;;;;;;;10.00;9.00;;;;;;;15.56;61.80;97493.97;5038455;28;20182;-69
2022/09/12 05:23:56;;;;;;;16.07;9.33;;;;;;;15.62;61.75;97490.59;5062464;28;20182;-71
2022/09/12 05:26:22;;;;;;;11.07;8.23;;;;;;;15.65;61.96;97497.34;5061768;28;20218;-71
2022/09/12 05:28:49;;;;;;;9.67;8.70;;;;;;;15.74;61.93;97496.28;5067925;28;20512;-69
2022/09/12 05:31:20;;;;;;;9.37;8.47;;;;;;;15.78;61.86;97507.31;5045821;28;20216;-70
2022/09/12 05:33:47;;;;;;;10.10;8.97;;;;;;;15.86;61.96;97504.63;5057741;28;20464;-71
2022/09/12 05:36:24;;;;;;;9.67;8.67;;;;;;;15.93;62.14;97510.88;5067878;28;20461;-71
2022/09/12 05:38:50;;;;;;;9.53;8.63;;;;;;;16.06;62.04;97510.22;5063664;28;20420;-71
2022/09/12 05:41:18;;;;;;;10.73;7.90;;;;;;;16.12;61.97;97509.53;5056077;28;20799;-69
2022/09/12 05:43:44;;;;;;;11.83;9.23;;;;;;;16.22;61.92;97508.44;5051880;28;21423;-71
2022/09/12 05:46:15;;;;;;;13.23;8.53;;;;;;;16.28;61.87;97518.28;5050403;28;20531;-70
2022/09/12 05:48:43;;;;;;;8.93;8.03;;;;;;;16.37;61.81;97516.38;5052121;28;20412;-70
2022/09/12 05:51:18;;;;;;;9.57;8.50;;;;;;;16.49;62.04;97514.09;5063154;28;20923;-70
2022/09/12 05:53:44;;;;;;;10.10;9.10;;;;;;;16.63;61.83;97515.09;5050605;28;20463;-70
2022/09/12 05:56:14;;;;;;;12.50;8.80;;;;;;;16.71;61.73;97518.47;5052987;28;20452;-72
2022/09/12 05:58:42;;;;;;;15.97;9.17;;;;;;;16.83;61.48;97515.34;5052958;28;20437;-72
2022/09/12 06:01:11;;;;;;;10.83;8.43;;;;;;;16.92;61.04;97514.22;5051657;28;20440;-70
2022/09/12 06:03:44;;;;;;;11.33;9.03;;;;;;;17.06;60.86;97506.47;5053095;28;20447;-71
2022/09/12 06:06:14;;;;;;;11.73;9.37;;;;;;;17.17;60.63;97508.63;5060300;28;20456;-69
2022/09/12 06:08:43;;;;;;;10.57;9.50;;;;;;;17.32;60.74;97520.00;5052392;28;20425;-69
2022/09/12 06:11:10;;;;;;;10.77;9.60;;;;;;;17.47;60.96;97506.72;5052476;28;20422;-70
2022/09/12 06:13:38;;;;;;;9.97;8.43;;;;;;;17.58;60.49;97507.25;5052720;28;20828;-71
2022/09/12 06:16:15;;;;;;;11.00;8.93;;;;;;;17.63;60.14;97503.00;5060988;28;20445;-70
2022/09/12 06:18:41;;;;;;;13.73;9.43;;;;;;;17.76;59.97;97509.44;5052120;28;20563;-69
2022/09/12 06:21:08;;;;;;;17.30;10.20;;;;;;;17.89;59.93;97509.53;5052328;28;20425;-69
2022/09/12 06:23:34;;;;;;;12.37;10.43;;;;;;;18.02;59.99;97500.09;5053259;28;20266;-69
2022/09/12 06:26:00;;;;;;;11.90;10.53;;;;;;;18.14;59.45;97503.84;5052704;28;20442;-70
2022/09/12 06:28:26;;;;;;;14.23;11.30;;;;;;;18.23;59.57;97510.63;5051923;28;20187;-70
2022/09/12 06:30:51;;;;;;;12.60;11.30;;;;;;;18.26;58.86;97498.81;5053138;28;20187;-70
2022/09/12 06:33:17;;;;;;;11.23;10.10;;;;;;;18.37;58.96;97495.59;5051032;28;20896;-69
2022/09/12 06:35:42;;;;;;;12.47;10.80;;;;;;;18.52;58.84;97494.66;5057831;28;20219;-69
2022/09/12 06:38:08;;;;;;;11.20;10.10;;;;;;;18.60;58.21;97504.31;5052603;28;20218;-71
2022/09/12 06:40:34;;;;;;;11.90;10.10;;;;;;;18.64;58.31;97498.41;5043069;28;20186;-69
2022/09/12 06:43:00;;;;;;;13.50;10.77;;;;;;;18.73;58.30;97501.72;5046459;28;20659;-69
2022/09/12 06:45:26;;;;;;;15.47;11.10;;;;;;;18.80;58.50;97507.06;5051257;28;20449;-69
2022/09/12 06:47:51;;;;;;;12.60;10.03;;;;;;;18.93;57.95;97504.47;5046103;28;20180;-69
2022/09/12 06:50:17;;;;;;;16.73;10.30;;;;;;;19.01;58.11;97503.50;5042049;28;20191;-69
2022/09/12 06:52:43;;;;;;;13.57;10.43;;;;;;;19.13;58.05;97509.03;5043840;28;20298;-68
2022/09/12 06:55:08;;;;;;;11.80;10.17;;;;;;;19.32;57.50;97505.63;5042297;28;20231;-68
2022/09/12 06:57:35;;;;;;;20.83;10.50;;;;;;;19.52;57.47;97507.50;5050422;28;20465;-69
2022/09/12 07:00:04;;;;;;;13.03;9.33;;;;;;;19.68;56.58;97505.47;5042778;28;20256;-68
2022/09/12 07:02:29;;;;;;;10.93;9.87;;;;;;;19.84;56.41;97505.09;5046649;28;20479;-68
2022/09/12 07:04:55;;;;;;;10.57;9.47;;;;;;;19.98;55.35;97507.75;5044933;28;20427;-68
2022/09/12 07:07:21;;;;;;;11.87;9.80;;;;;;;20.02;55.80;97515.13;5050255;28;20188;-69
2022/09/12 07:09:48;;;;;;;14.30;9.23;;;;;;;20.32;55.83;97512.00;5047729;28;20418;-69
2022/09/12 07:12:13;;;;;;;15.77;9.47;;;;;;;20.57;55.42;97514.00;5049406;28;20195;-69
2022/09/12 07:14:39;;;;;;;8.30;7.50;;;;;;;20.72;54.95;97508.44;5050235;28;20513;-69
2022/09/12 07:17:04;;;;;;;8.93;8.07;;;;;;;20.69;53.54;97511.53;5050278;28;20293;-69
2022/09/12 07:19:30;;;;;;;14.23;7.90;;;;;;;20.83;54.49;97501.66;5050854;28;20240;-71
2022/09/12 07:21:55;;;;;;;8.13;6.60;;;;;;;21.11;53.91;97501.31;5047991;28;20275;-72
2022/09/12 07:24:21;;;;;;;7.13;5.97;;;;;;;21.33;53.13;97501.81;5045779;28;20207;-70
2022/09/12 07:26:46;;;;;;;7.70;6.90;;;;;;;21.45;52.10;97501.13;5032087;28;20200;-68
2022/09/12 07:29:15;;;;;;;7.87;6.03;;;;;;;21.59;52.54;97499.22;5042052;28;20726;-69
2022/09/12 07:31:40;;;;;;;6.77;6.07;;;;;;;21.86;52.27;97489.19;5039328;28;20200;-70
2022/09/12 07:34:05;;;;;;;7.17;5.90;;;;;;;22.10;51.43;97489.38;5031807;28;20605;-70
2022/09/12 07:36:31;;;;;;;6.23;5.73;;;;;;;22.26;50.89;97485.31;5031838;28;20242;-70
2022/09/12 07:38:57;;;;;;;5.53;4.87;;;;;;;22.45;49.53;97491.53;5043329;28;20557;-70
2022/09/12 07:41:27;;;;;;;5.63;5.00;;;;;;;22.41;49.13;97495.69;5038417;28;20223;-70
2022/09/12 07:43:59;;;;;;;6.10;5.50;;;;;;;22.51;49.15;97490.66;5040003;28;20187;-71
2022/09/12 07:46:26;;;;;;;7.00;4.60;;;;;;;22.81;48.99;97489.88;5041612;28;20974;-71
2022/09/12 07:48:53;;;;;;;5.27;4.77;;;;;;;23.04;48.70;97491.06;5038452;28;20842;-70
2022/09/12 07:51:19;;;;;;;5.33;4.40;;;;;;;23.14;47.91;97487.81;5040381;28;20418;-68
2022/09/12 07:53:45;;;;;;;5.00;4.50;;;;;;;23.12;47.64;97485.38;5045144;28;20457;-71
2022/09/12 07:56:11;;;;;;;7.13;4.50;;;;;;;23.48;47.19;97488.22;5045206;28;20445;-70
2022/09/12 07:58:39;;;;;;;4.57;3.93;;;;;;;23.68;46.10;97497.78;5037753;28;20207;-73
2022/09/12 08:01:14;;;;;;;4.30;4.00;;;;;;;23.78;46.18;97498.03;5042486;28;20422;-69
2022/09/12 08:03:41;;;;;;;5.83;4.37;;;;;;;23.88;45.42;97494.78;5039686;28;20425;-71
2022/09/12 08:06:08;;;;;;;4.17;3.87;;;;;;;24.07;45.22;97485.63;5051162;28;20475;-70
2022/09/12 08:08:35;;;;;;;4.53;3.60;;;;;;;24.29;43.51;97487.72;5038895;28;20422;-70
2022/09/12 08:11:02;;;;;;;4.83;4.00;;;;;;;24.01;43.71;97485.72;5046552;28;20800;-70
2022/09/12 08:13:28;;;;;;;3.63;3.43;;;;;;;24.37;43.54;97484.69;5049299;28;21272;-70
2022/09/12 08:16:03;;;;;;;3.50;3.20;;;;;;;24.74;42.77;97488.13;5050393;28;20444;-71
2022/09/12 08:18:29;;;;;;;3.80;3.50;;;;;;;24.90;41.66;97484.72;5049716;28;20429;-72
2022/09/12 08:20:57;;;;;;;4.67;3.80;;;;;;;24.91;40.76;97483.66;5051621;28;20429;-70
2022/09/12 08:23:23;;;;;;;4.50;3.20;;;;;;;25.04;40.99;97482.56;5049424;28;20429;-69
2022/09/12 08:25:49;;;;;;;5.33;3.63;;;;;;;25.07;40.75;97486.66;5045803;28;20451;-70
2022/09/12 08:28:15;;;;;;;3.80;3.50;;;;;;;25.37;41.77;97485.56;5048098;28;20421;-71
2022/09/12 08:30:40;;;;;;;4.93;3.77;;;;;;;25.55;40.89;97484.56;5050400;28;20333;-69
2022/09/12 08:33:06;;;;;;;4.10;3.70;;;;;;;25.83;40.31;97485.56;5050105;28;20207;-69
2022/09/12 08:35:32;;;;;;;3.80;3.47;;;;;;;25.82;39.30;97490.13;5050072;28;20223;-72
2022/09/12 08:37:57;;;;;;;4.60;3.30;;;;;;;25.76;39.13;97485.72;5049578;28;20179;-69
2022/09/12 08:40:23;;;;;;;3.87;3.57;;;;;;;26.06;38.64;97481.88;5049784;28;20190;-69
2022/09/12 08:42:55;;;;;;;3.37;3.07;;;;;;;26.30;38.55;97482.50;5050441;28;20524;-69
2022/09/12 08:45:35;;;;;;;3.13;2.83;;;;;;;26.53;37.34;97473.44;5048489;28;20213;-69
2022/09/12 08:48:02;;;;;;;6.73;3.40;;;;;;;26.81;36.87;97473.50;5048270;28;20548;-69
2022/09/12 08:50:27;;;;;;;3.53;3.23;;;;;;;26.71;36.88;97471.50;5048145;28;20428;-68
2022/09/12 08:53:02;;;;;;;3.70;3.40;;;;;;;26.87;37.15;97472.53;5050367;28;20460;-70
2022/09/12 08:55:36;;;;;;;4.57;3.80;;;;;;;26.93;37.12;97481.44;5048912;28;20249;-70
2022/09/12 08:58:28;;;;;;;3.27;2.80;;;;;;;27.12;37.05;97474.66;5049514;28;20421;-70
2022/09/12 09:00:58;;;;;;;4.80;3.10;;;;;;;27.18;36.10;97475.50;5045825;28;21007;-71
2022/09/12 09:03:51;;;;;;;3.47;2.67;;;;;;;27.32;36.38;97473.25;5048591;28;20429;-70
2022/09/12 09:06:25;;;;;;;6.37;2.90;;;;;;;27.04;35.82;97475.13;5057344;28;20472;-68
2022/09/12 09:09:32;;;;;;;6.00;2.90;;;;;;;27.13;36.04;97476.28;5050200;28;20433;-69
2022/09/12 09:12:03;;;;;;;3.10;2.80;;;;;;;27.04;36.25;97475.13;5046061;28;20421;-70
2022/09/12 09:14:48;;;;;;;6.73;3.17;;;;;;;27.12;36.28;97471.97;5044866;28;20457;-69
2022/09/12 09:17:37;;;;;;;6.80;3.10;;;;;;;27.31;35.59;97477.00;5051715;28;20429;-71
2022/09/12 09:20:30;;;;;;;3.80;3.40;;;;;;;27.25;35.94;97481.53;5049553;28;20443;-69
2022/09/12 09:23:02;;;;;;;3.67;2.50;;;;;;;27.71;35.83;97470.41;5044342;28;20434;-69
2022/09/12 09:25:55;;;;;;;8.87;3.00;;;;;;;28.02;35.36;97465.22;5052889;28;20947;-68
2022/09/12 09:28:24;;;;;;;7.87;5.20;;;;;;;28.05;35.12;97472.78;5045737;28;20475;-69
2022/09/12 09:30:50;;;;;;;5.00;3.30;;;;;;;28.17;35.40;97467.22;5052646;28;20456;-69
2022/09/12 09:33:25;;;;;;;3.60;2.73;;;;;;;28.47;33.84;97467.66;5044337;28;20486;-69
2022/09/12 09:36:28;;;;;;;2.70;2.50;;;;;;;28.48;33.53;97471.97;5049628;28;20218;-69
2022/09/12 09:39:15;;;;;;;7.93;3.27;;;;;;;28.37;32.92;97468.41;5026478;28;20924;-70
2022/09/12 09:41:49;;;;;;;3.27;2.97;;;;;;;28.38;33.36;97477.28;5044242;28;20426;-69
2022/09/12 09:44:15;;;;;;;3.90;2.50;;;;;;;28.43;33.10;97475.44;5051976;28;20420;-69
2022/09/12 09:46:42;;;;;;;2.43;2.20;;;;;;;28.54;32.94;97473.59;5051311;28;20485;-69
2022/09/12 09:49:12;;;;;;;4.23;2.13;;;;;;;28.63;32.42;97468.53;5051722;28;21003;-70
2022/09/12 09:51:39;;;;;;;2.87;2.40;;;;;;;28.65;32.40;97471.78;5045773;28;20185;-69
2022/09/12 09:54:20;;;;;;;4.87;2.13;;;;;;;28.94;32.95;97477.56;5051857;28;20490;-70
2022/09/12 09:56:46;;;;;;;2.10;1.90;;;;;;;29.19;32.42;97477.88;5045306;28;20959;-70
2022/09/12 09:59:15;;;;;;;2.43;2.23;;;;;;;29.15;32.55;97466.81;5051772;28;20425;-69
2022/09/12 10:01:48;;;;;;;2.97;2.77;;;;;;;29.42;31.75;97472.00;5053110;28;20545;-70
2022/09/12 10:04:19;;;;;;;10.30;9.30;;;;;;;29.52;31.28;97462.31;5049044;28;20487;-69
2022/09/12 10:06:45;;;;;;;5.33;3.43;;;;;;;29.75;31.32;97463.66;5055011;28;20442;-70
2022/09/12 10:09:13;;;;;;;2.20;1.60;;;;;;;29.72;30.42;97464.22;5050214;28;20436;-70
2022/09/12 10:11:39;;;;;;;1.90;1.70;;;;;;;29.43;29.34;97468.22;5052445;28;20822;-68
2022/09/12 10:14:04;;;;;;;1.80;1.70;;;;;;;29.65;29.20;97463.66;5058276;28;20524;-69
2022/09/12 10:16:47;;;;;;;4.33;1.57;;;;;;;29.60;28.78;97453.66;5051989;28;20230;-69
2022/09/12 10:19:23;;;;;;;1.90;1.80;;;;;;;29.38;30.18;97465.53;5052296;28;20529;-69
2022/09/12 10:21:53;;;;;;;2.53;1.60;;;;;;;29.44;29.54;97458.25;5057648;28;20426;-69
2022/09/12 10:24:28;;;;;;;2.63;2.23;;;;;;;29.74;29.82;97456.63;5050829;28;20468;-69
2022/09/12 10:26:56;;;;;;;2.60;1.87;;;;;;;29.84;30.04;97461.22;5051656;28;20860;-70
2022/09/12 10:29:27;;;;;;;2.90;2.27;;;;;;;29.96;30.40;97460.97;5051788;28;20421;-70
2022/09/12 10:32:03;;;;;;;4.50;3.20;;;;;;;30.12;28.24;97448.25;5033717;28;20426;-70
2022/09/12 10:34:37;;;;;;;6.50;1.63;;;;;;;29.95;28.29;97454.75;5038381;28;20466;-69
2022/09/12 10:37:05;;;;;;;3.80;1.60;;;;;;;30.01;29.20;97452.84;5043276;28;20465;-69
2022/09/12 10:39:33;;;;;;;1.60;1.50;;;;;;;30.39;29.25;97449.78;5041944;28;20452;-70
2022/09/12 10:41:58;;;;;;;3.13;1.70;;;;;;;30.20;29.70;97447.66;5047291;28;20422;-68
2022/09/12 10:44:26;;;;;;;2.73;1.60;;;;;;;30.43;29.44;97443.56;5044064;28;20441;-69
2022/09/12 10:46:53;;;;;;;3.30;1.67;;;;;;;30.67;29.14;97442.16;5044035;28;20247;-69
2022/09/12 10:49:20;;;;;;;3.60;2.10;;;;;;;30.80;27.86;97439.63;5046772;28;20429;-69
2022/09/12 10:51:46;;;;;;;4.77;1.63;;;;;;;30.73;27.70;97438.31;5044217;28;20484;-72
2022/09/12 10:54:12;;;;;;;2.33;1.53;;;;;;;30.90;28.06;97435.25;5044058;28;20493;-69
2022/09/12 10:56:46;;;;;;;1.53;1.43;;;;;;;30.75;28.03;97431.53;5044789;28;20208;-69
2022/09/12 10:59:30;;;;;;;2.90;1.43;;;;;;;30.56;27.51;97433.25;5046416;28;20425;-71
2022/09/12 11:02:01;;;;;;;2.03;1.83;;;;;;;30.49;27.03;97433.53;5042555;28;20514;-70
2022/09/12 11:05:01;;;;;;;1.63;1.53;;;;;;;29.97;27.72;97422.88;5051828;28;20790;-72
2022/09/12 11:07:44;;;;;;;2.07;1.37;;;;;;;30.11;28.31;97425.81;5042920;28;20422;-70
2022/09/12 11:10:31;;;;;;;1.60;1.50;;;;;;;30.07;29.13;97415.81;5047895;28;20433;-69
2022/09/12 11:13:00;;;;;;;2.20;1.40;;;;;;;30.40;28.29;97418.97;5050843;28;20963;-70
2022/09/12 11:15:35;;;;;;;3.83;1.53;;;;;;;30.57;28.85;97415.94;5051509;28;20436;-70
2022/09/12 11:18:12;;;;;;;2.73;1.60;;;;;;;30.53;27.23;97406.75;5049819;28;20433;-70
2022/09/12 11:20:55;;;;;;;1.70;1.50;;;;;;;30.58;27.53;97409.47;5046920;28;20452;-71
2022/09/12 11:23:20;;;;;;;2.90;1.37;;;;;;;30.41;27.50;97407.06;5052147;28;20955;-70
2022/09/12 11:26:00;;;;;;;2.80;1.30;;;;;;;30.48;27.66;97402.16;5046090;28;20441;-70
2022/09/12 11:28:55;;;;;;;2.30;1.90;;;;;;;30.39;27.79;97401.94;5044076;28;20674;-69
2022/09/12 11:31:33;;;;;;;3.67;3.27;;;;;;;30.33;27.63;97400.34;5030324;28;20426;-69
2022/09/12 11:34:01;;;;;;;3.70;1.50;;;;;;;30.72;26.60;97399.66;5040544;28;20503;-71
2022/09/12 11:36:36;;;;;;;2.93;2.07;;;;;;;30.91;26.47;97397.09;5038341;28;20461;-69
2022/09/12 11:39:12;;;;;;;4.00;1.60;;;;;;;30.90;26.05;97395.50;5039684;28;20421;-69
2022/09/12 11:41:41;;;;;;;1.80;1.70;;;;;;;31.07;26.76;97392.41;5039170;28;20559;-71
2022/09/12 11:44:34;;;;;;;1.77;1.57;;;;;;;31.32;26.88;97382.50;5034681;28;20488;-68
2022/09/12 11:47:04;;;;;;;3.20;2.03;;;;;;;31.60;26.64;97384.69;5042386;28;20495;-70